Time;durP1;ratioP1;P1;durP2;ratioP2;P2;SDS_P1;SDS_P2;PMS_P1;PMS_P2;Temp;Humidity;BMP_temperature;BMP_pressure;BME280_temperature;BME280_humidity;BME280_pressure;Samples;Min_cycle;Max_cycle;Signal;HPM_P1;HPM_P2
2023/05/12 00:01:38;;;;;;;13.23;10.23;;;13.60;99.90;;;;;;5025600;28;20040;-80
2023/05/12 00:04:04;;;;;;;15.02;11.98;;;13.60;99.90;;;;;;5024673;28;20040;-80
2023/05/12 00:06:30;;;;;;;16.13;11.60;;;13.50;99.90;;;;;;5027116;28;20037;-79
2023/05/12 00:08:55;;;;;;;15.90;11.52;;;13.60;99.90;;;;;;5009605;28;20680;-80
2023/05/12 00:11:21;;;;;;;15.15;11.00;;;13.60;99.90;;;;;;5041193;28;20167;-80
2023/05/12 00:13:47;;;;;;;17.15;11.13;;;13.60;99.90;;;;;;5041083;28;20029;-79
2023/05/12 00:16:14;;;;;;;14.65;11.60;;;13.60;99.90;;;;;;5042590;28;20029;-80
2023/05/12 00:18:39;;;;;;;20.23;13.20;;;13.60;99.90;;;;;;5040798;28;20071;-80
2023/05/12 00:21:07;;;;;;;19.20;13.65;;;13.60;99.90;;;;;;5026513;28;20429;-80
2023/05/12 00:23:32;;;;;;;19.75;13.88;;;13.50;99.90;;;;;;5011000;28;20025;-80
2023/05/12 00:25:58;;;;;;;21.67;15.45;;;13.60;99.90;;;;;;5036341;28;20501;-81
2023/05/12 00:28:24;;;;;;;27.23;16.30;;;13.50;99.90;;;;;;5026849;28;20417;-80
2023/05/12 00:30:49;;;;;;;25.35;16.98;;;13.50;99.90;;;;;;5025757;28;20053;-81
2023/05/12 00:33:16;;;;;;;32.75;18.85;;;13.50;99.90;;;;;;5026745;28;20031;-80
2023/05/12 00:35:44;;;;;;;32.92;17.77;;;13.50;99.90;;;;;;5025042;28;20055;-80
2023/05/12 00:38:10;;;;;;;34.22;22.83;;;13.60;99.90;;;;;;5026141;28;20447;-79
2023/05/12 00:40:36;;;;;;;37.47;26.40;;;13.60;99.90;;;;;;5025415;28;20532;-80
2023/05/12 00:43:01;;;;;;;35.15;23.15;;;13.50;99.90;;;;;;5024653;28;20037;-81
2023/05/12 00:45:28;;;;;;;36.08;26.55;;;13.60;99.90;;;;;;5038758;28;20028;-81
2023/05/12 00:47:54;;;;;;;39.78;24.67;;;13.60;99.90;;;;;;5025565;28;20235;-81
2023/05/12 00:50:20;;;;;;;41.33;26.88;;;13.50;99.90;;;;;;5023601;28;20130;-80
2023/05/12 00:52:46;;;;;;;36.55;23.70;;;13.60;99.90;;;;;;5025148;28;20389;-80
2023/05/12 00:55:12;;;;;;;33.45;23.48;;;13.60;99.90;;;;;;5023804;28;20028;-79
2023/05/12 00:57:37;;;;;;;32.83;22.27;;;13.60;99.90;;;;;;5025040;28;20033;-79
2023/05/12 01:00:03;;;;;;;35.42;21.55;;;13.60;99.90;;;;;;5023882;28;20036;-79
2023/05/12 01:02:29;;;;;;;32.25;21.83;;;13.60;99.90;;;;;;5038976;28;20079;-79
2023/05/12 01:04:54;;;;;;;42.75;22.80;;;13.60;99.90;;;;;;5041684;28;20029;-79
2023/05/12 01:07:24;;;;;;;30.92;20.55;;;13.60;99.90;;;;;;5041212;28;20043;-79
2023/05/12 01:09:54;;;;;;;31.23;20.13;;;13.60;99.90;;;;;;5008648;28;20029;-79
2023/05/12 01:12:20;;;;;;;24.77;18.55;;;13.60;99.90;;;;;;5008442;28;20187;-80
2023/05/12 01:14:46;;;;;;;24.13;17.38;;;13.60;99.90;;;;;;5024545;28;20128;-79
2023/05/12 01:17:14;;;;;;;27.88;17.60;;;13.60;99.90;;;;;;5025832;28;20097;-79
2023/05/12 01:19:50;;;;;;;24.08;16.20;;;13.60;99.90;;;;;;5023909;28;20029;-79
2023/05/12 01:22:16;;;;;;;25.25;16.95;;;13.70;99.90;;;;;;5036721;28;20040;-80
2023/05/12 01:24:57;;;;;;;19.88;13.73;;;13.70;99.90;;;;;;5025904;28;20029;-79
2023/05/12 01:27:24;;;;;;;20.52;13.95;;;13.70;99.90;;;;;;5026341;28;20029;-80
2023/05/12 01:29:49;;;;;;;20.13;13.80;;;13.60;99.90;;;;;;5008072;28;20040;-79
2023/05/12 01:32:15;;;;;;;16.77;11.13;;;13.60;99.90;;;;;;5039345;28;20396;-79
2023/05/12 01:34:41;;;;;;;14.15;9.80;;;13.60;99.90;;;;;;5018923;28;20504;-79
2023/05/12 01:37:08;;;;;;;9.85;8.40;;;13.70;99.90;;;;;;5024843;28;20028;-80
2023/05/12 01:39:34;;;;;;;12.70;8.75;;;13.70;99.90;;;;;;5024832;28;20116;-80
2023/05/12 01:41:59;;;;;;;12.85;8.88;;;13.60;99.90;;;;;;5038284;28;20105;-79
2023/05/12 01:44:25;;;;;;;11.23;8.07;;;13.60;99.90;;;;;;5041094;28;20040;-79
2023/05/12 01:46:51;;;;;;;11.15;6.82;;;13.60;99.90;;;;;;5008286;28;20055;-80
2023/05/12 01:49:16;;;;;;;7.95;6.57;;;13.60;99.90;;;;;;5007485;28;20882;-79
2023/05/12 01:51:42;;;;;;;10.10;6.43;;;13.60;99.90;;;;;;5039434;28;20032;-80
2023/05/12 01:54:07;;;;;;;8.02;5.65;;;13.60;99.90;;;;;;5038820;28;20116;-79
2023/05/12 01:56:33;;;;;;;7.68;5.95;;;13.60;99.90;;;;;;5007176;28;20066;-80
2023/05/12 01:58:58;;;;;;;5.57;4.18;;;13.50;99.90;;;;;;5042969;28;20036;-79
2023/05/12 02:01:27;;;;;;;6.43;4.55;;;13.50;99.90;;;;;;5044941;28;20033;-80
2023/05/12 02:03:54;;;;;;;5.40;4.10;;;13.50;99.90;;;;;;5024059;28;20477;-81
2023/05/12 02:06:20;;;;;;;4.07;3.67;;;13.60;99.90;;;;;;5020533;28;20564;-80
2023/05/12 02:08:45;;;;;;;4.88;4.35;;;13.60;99.90;;;;;;5026661;28;20029;-80
2023/05/12 02:11:11;;;;;;;4.78;3.85;;;13.50;99.90;;;;;;5006476;28;20374;-79
2023/05/12 02:13:36;;;;;;;4.20;3.58;;;13.60;99.90;;;;;;5010416;28;20498;-80
2023/05/12 02:16:02;;;;;;;9.45;3.85;;;13.60;99.90;;;;;;5026711;28;20094;-80
2023/05/12 02:18:28;;;;;;;5.97;3.80;;;13.50;99.90;;;;;;5043117;28;20032;-79
2023/05/12 02:20:53;;;;;;;3.45;3.15;;;13.50;99.90;;;;;;5011434;28;20033;-79
2023/05/12 02:23:19;;;;;;;3.67;3.05;;;13.50;99.90;;;;;;5009566;28;20029;-79
2023/05/12 02:25:45;;;;;;;4.47;3.78;;;13.50;99.90;;;;;;5026695;28;20037;-80
2023/05/12 02:28:11;;;;;;;4.03;3.63;;;13.50;99.90;;;;;;5042829;28;20416;-80
2023/05/12 02:30:37;;;;;;;4.38;3.78;;;13.50;99.90;;;;;;5043974;28;20033;-80
2023/05/12 02:33:05;;;;;;;5.15;4.15;;;13.50;99.90;;;;;;5025584;28;20374;-80
2023/05/12 02:35:31;;;;;;;7.10;4.60;;;13.50;99.90;;;;;;5011645;28;20029;-80
2023/05/12 02:37:56;;;;;;;5.07;4.00;;;13.50;99.90;;;;;;5041888;28;20355;-82
2023/05/12 02:40:22;;;;;;;4.32;3.47;;;13.40;99.90;;;;;;5009488;28;20033;-81
2023/05/12 02:42:48;;;;;;;4.43;3.15;;;13.40;99.90;;;;;;5025399;28;20037;-80
2023/05/12 02:45:13;;;;;;;4.70;3.97;;;13.40;99.90;;;;;;5026653;28;20071;-80
2023/05/12 02:47:39;;;;;;;4.45;3.40;;;13.40;99.90;;;;;;5025844;28;20112;-81
2023/05/12 02:50:05;;;;;;;3.85;3.15;;;13.40;99.90;;;;;;5040090;28;20120;-80
2023/05/12 02:52:31;;;;;;;4.13;3.00;;;13.40;99.90;;;;;;5025832;28;20507;-81
2023/05/12 02:54:56;;;;;;;4.70;3.30;;;13.30;99.90;;;;;;5010876;28;20116;-80
2023/05/12 02:57:22;;;;;;;3.42;2.90;;;13.30;99.90;;;;;;5025421;28;20060;-79
2023/05/12 02:59:47;;;;;;;3.40;3.10;;;13.30;99.90;;;;;;5026128;28;20040;-81
2023/05/12 03:02:13;;;;;;;3.95;2.80;;;13.30;99.90;;;;;;5026321;28;20025;-80
2023/05/12 03:04:38;;;;;;;6.00;3.35;;;13.20;99.90;;;;;;5027687;28;20021;-80
2023/05/12 03:07:04;;;;;;;5.78;4.28;;;13.10;99.90;;;;;;5026427;28;20548;-79
2023/05/12 03:09:29;;;;;;;4.13;3.00;;;13.10;99.90;;;;;;5041946;28;20590;-80
2023/05/12 03:11:55;;;;;;;5.90;3.67;;;13.00;99.90;;;;;;5039427;28;20049;-80
2023/05/12 03:14:21;;;;;;;4.03;3.22;;;12.90;99.90;;;;;;5023572;28;20034;-80
2023/05/12 03:16:46;;;;;;;6.35;3.88;;;13.00;99.90;;;;;;5039007;28;20492;-80
2023/05/12 03:19:12;;;;;;;3.58;3.25;;;13.00;99.90;;;;;;5043518;28;20500;-80
2023/05/12 03:21:38;;;;;;;5.72;3.28;;;13.00;99.90;;;;;;5010533;28;20032;-79
2023/05/12 03:24:03;;;;;;;4.32;3.70;;;12.90;99.90;;;;;;5043725;28;20476;-80
2023/05/12 03:26:29;;;;;;;3.95;3.55;;;12.90;99.90;;;;;;5026008;28;20106;-80
2023/05/12 03:28:55;;;;;;;7.95;3.70;;;12.70;99.90;;;;;;5024049;28;20032;-80
2023/05/12 03:31:20;;;;;;;6.47;3.53;;;12.80;99.90;;;;;;5011761;28;20037;-80
2023/05/12 03:33:46;;;;;;;3.67;3.03;;;12.70;99.90;;;;;;5039857;28;20040;-80
2023/05/12 03:36:11;;;;;;;4.68;3.50;;;12.70;99.90;;;;;;5011774;28;20037;-81
2023/05/12 03:38:37;;;;;;;3.88;3.55;;;12.70;99.90;;;;;;5009150;28;20102;-81
2023/05/12 03:41:06;;;;;;;4.35;3.38;;;12.60;99.90;;;;;;5025667;28;20057;-82
2023/05/12 03:43:31;;;;;;;3.67;3.30;;;12.60;99.90;;;;;;5010364;28;20032;-81
2023/05/12 03:45:57;;;;;;;4.07;3.25;;;12.60;99.90;;;;;;5043823;28;20029;-83
2023/05/12 03:48:22;;;;;;;3.80;3.25;;;12.50;99.90;;;;;;5028361;28;20106;-82
2023/05/12 03:50:48;;;;;;;7.97;4.20;;;12.50;99.90;;;;;;5025472;28;20037;-82
2023/05/12 03:53:14;;;;;;;5.50;3.78;;;12.40;99.90;;;;;;5027097;28;20029;-81
2023/05/12 03:55:40;;;;;;;10.90;3.50;;;12.40;99.90;;;;;;5043426;28;20436;-82
2023/05/12 03:58:06;;;;;;;4.78;3.20;;;12.30;99.90;;;;;;5011089;28;20033;-81
2023/05/12 04:00:31;;;;;;;3.50;3.15;;;12.30;99.90;;;;;;5042778;28;20400;-80
2023/05/12 04:02:57;;;;;;;3.75;3.28;;;12.30;99.90;;;;;;5044515;28;20041;-80
2023/05/12 04:05:23;;;;;;;7.72;3.80;;;12.20;99.90;;;;;;5027066;28;20036;-80
2023/05/12 04:07:48;;;;;;;2.95;2.65;;;12.20;99.90;;;;;;5043811;28;20043;-81
2023/05/12 04:10:14;;;;;;;3.42;2.97;;;12.30;99.90;;;;;;5044793;28;20127;-81
2023/05/12 04:12:40;;;;;;;5.85;2.78;;;12.30;99.90;;;;;;5040253;28;20497;-81
2023/05/12 04:15:05;;;;;;;7.70;3.20;;;12.20;99.90;;;;;;5046047;28;20114;-82
2023/05/12 04:17:31;;;;;;;6.70;3.17;;;12.20;99.90;;;;;;5011442;28;20615;-80
2023/05/12 04:19:56;;;;;;;4.72;2.85;;;12.20;99.90;;;;;;5025774;28;20025;-80
2023/05/12 04:22:22;;;;;;;4.50;3.40;;;12.20;99.90;;;;;;5027549;28;20036;-81
2023/05/12 04:24:48;;;;;;;4.63;3.50;;;12.20;99.90;;;;;;5040860;28;20032;-82
2023/05/12 04:27:13;;;;;;;7.35;3.78;;;12.20;99.90;;;;;;5009098;28;20025;-82
2023/05/12 04:29:39;;;;;;;4.10;3.22;;;12.20;99.90;;;;;;5024591;28;20064;-81
2023/05/12 04:32:05;;;;;;;5.82;3.50;;;12.20;99.90;;;;;;5008228;28;20062;-80
2023/05/12 04:34:30;;;;;;;5.78;3.65;;;12.20;99.90;;;;;;5023517;28;20037;-81
2023/05/12 04:36:56;;;;;;;8.75;3.90;;;12.20;99.90;;;;;;5042582;28;20033;-82
2023/05/12 04:39:21;;;;;;;5.18;3.60;;;12.20;99.90;;;;;;5024200;28;20108;-80
2023/05/12 04:41:47;;;;;;;4.70;4.20;;;12.30;99.90;;;;;;5024908;28;20036;-81
2023/05/12 04:44:12;;;;;;;6.05;4.13;;;12.20;99.90;;;;;;5041295;28;20036;-82
2023/05/12 04:46:38;;;;;;;7.47;4.18;;;12.30;99.90;;;;;;5009413;28;20033;-80
2023/05/12 04:49:03;;;;;;;8.43;4.40;;;12.30;99.90;;;;;;5038977;28;20033;-80
2023/05/12 04:51:30;;;;;;;3.60;3.22;;;12.30;99.90;;;;;;5025661;28;20079;-81
2023/05/12 04:53:56;;;;;;;6.07;3.88;;;12.40;99.90;;;;;;5026475;28;20044;-80
2023/05/12 04:56:22;;;;;;;6.18;3.50;;;12.40;99.90;;;;;;5039779;28;20067;-80
2023/05/12 04:58:47;;;;;;;6.55;4.22;;;12.40;99.90;;;;;;5041423;28;20198;-81
2023/05/12 05:01:13;;;;;;;6.78;4.22;;;12.40;99.90;;;;;;5030113;28;20113;-80
2023/05/12 05:03:39;;;;;;;4.78;3.33;;;12.50;99.90;;;;;;5041814;28;20026;-80
2023/05/12 05:06:05;;;;;;;6.25;3.55;;;12.50;99.90;;;;;;5041620;28;20526;-79
2023/05/12 05:08:30;;;;;;;5.07;3.97;;;12.50;99.90;;;;;;5008248;28;20033;-80
2023/05/12 05:10:56;;;;;;;4.47;4.07;;;12.60;99.90;;;;;;5040893;28;20481;-81
2023/05/12 05:13:22;;;;;;;7.45;3.55;;;12.60;99.90;;;;;;5042867;28;20033;-80
2023/05/12 05:15:51;;;;;;;4.57;3.67;;;12.70;99.90;;;;;;5009298;28;20115;-80
2023/05/12 05:18:16;;;;;;;5.00;4.07;;;12.70;99.90;;;;;;5041345;28;20064;-80
2023/05/12 05:20:42;;;;;;;7.10;3.95;;;12.70;99.90;;;;;;5024124;28;20117;-80
2023/05/12 05:23:08;;;;;;;4.35;3.10;;;12.80;99.90;;;;;;5025026;28;20068;-80
2023/05/12 05:25:34;;;;;;;8.23;3.50;;;12.80;99.90;;;;;;5040885;28;20476;-80
2023/05/12 05:27:59;;;;;;;4.13;3.60;;;12.90;99.90;;;;;;5043696;28;20029;-80
2023/05/12 05:30:25;;;;;;;6.05;3.65;;;12.90;99.90;;;;;;5023014;28;20164;-80
2023/05/12 05:32:50;;;;;;;7.63;3.40;;;13.00;99.90;;;;;;5044254;28;22940;-81
2023/05/12 05:35:19;;;;;;;3.92;3.40;;;13.10;99.90;;;;;;5040572;28;20044;-85
2023/05/12 05:37:44;;;;;;;4.53;3.50;;;13.20;99.90;;;;;;5036608;28;20082;-80
2023/05/12 05:40:10;;;;;;;5.20;3.58;;;13.30;99.90;;;;;;5007172;28;20063;-79
2023/05/12 05:42:36;;;;;;;15.27;4.05;;;13.30;99.90;;;;;;5041963;28;20029;-80
2023/05/12 05:45:02;;;;;;;4.45;3.53;;;13.30;99.90;;;;;;5007778;28;20232;-80
2023/05/12 05:47:27;;;;;;;5.70;3.70;;;13.40;99.90;;;;;;5026671;28;20051;-81
2023/05/12 05:49:54;;;;;;;4.68;3.30;;;13.30;99.90;;;;;;5006565;28;20773;-78
2023/05/12 05:52:19;;;;;;;5.47;3.67;;;13.50;99.90;;;;;;5009687;28;20029;-77
2023/05/12 05:54:45;;;;;;;7.50;3.80;;;13.50;99.90;;;;;;5024240;28;20029;-78
2023/05/12 05:57:10;;;;;;;6.65;3.30;;;13.50;99.90;;;;;;5024643;28;20029;-77
2023/05/12 05:59:36;;;;;;;4.72;3.25;;;13.70;99.90;;;;;;5040398;28;20037;-77
2023/05/12 06:02:02;;;;;;;6.20;2.85;;;13.70;99.90;;;;;;5024394;28;20041;-78
2023/05/12 06:04:28;;;;;;;3.72;3.25;;;13.80;99.90;;;;;;5041436;28;20032;-77
2023/05/12 06:06:53;;;;;;;4.32;3.40;;;13.90;99.90;;;;;;5019944;28;20033;-78
2023/05/12 06:09:19;;;;;;;4.07;3.35;;;14.00;99.90;;;;;;5042816;28;20021;-77
2023/05/12 06:11:44;;;;;;;3.65;3.35;;;14.00;99.90;;;;;;5022193;28;20409;-77
2023/05/12 06:14:10;;;;;;;4.85;3.42;;;14.10;99.90;;;;;;5007855;28;20592;-78
2023/05/12 06:16:36;;;;;;;3.67;3.15;;;14.20;99.90;;;;;;5032104;28;20048;-77
2023/05/12 06:19:01;;;;;;;4.93;3.30;;;14.30;99.90;;;;;;5028767;28;20063;-76
2023/05/12 06:21:27;;;;;;;3.15;2.70;;;14.40;99.90;;;;;;5034116;28;20029;-77
2023/05/12 06:23:55;;;;;;;3.47;3.08;;;14.60;99.90;;;;;;5024575;28;20366;-77
2023/05/12 06:26:21;;;;;;;4.60;3.45;;;14.60;99.90;;;;;;5040924;28;20033;-77
2023/05/12 06:28:47;;;;;;;4.43;3.47;;;14.70;99.90;;;;;;5040648;28;20742;-77
2023/05/12 06:31:12;;;;;;;3.50;3.17;;;14.80;99.90;;;;;;5022568;28;20390;-77
2023/05/12 06:33:38;;;;;;;4.10;3.70;;;14.80;99.90;;;;;;5008104;28;20064;-77
2023/05/12 06:36:04;;;;;;;3.30;3.00;;;14.90;99.90;;;;;;5024442;28;20040;-77
2023/05/12 06:38:29;;;;;;;4.15;2.80;;;14.90;99.90;;;;;;5041776;28;20475;-77
2023/05/12 06:40:55;;;;;;;4.93;3.03;;;15.00;99.90;;;;;;5023461;28;20029;-77
2023/05/12 06:43:22;;;;;;;4.88;2.90;;;15.00;99.90;;;;;;5010237;28;20029;-77
2023/05/12 06:45:47;;;;;;;3.83;3.25;;;15.10;99.90;;;;;;5026310;28;20116;-78
2023/05/12 06:48:13;;;;;;;4.50;3.22;;;15.20;99.90;;;;;;5028338;28;20542;-78
2023/05/12 06:50:38;;;;;;;5.00;3.08;;;15.10;99.90;;;;;;5042438;28;20043;-78
2023/05/12 06:53:06;;;;;;;3.50;3.20;;;15.20;99.90;;;;;;5044771;28;20472;-79
2023/05/12 06:55:33;;;;;;;3.67;3.38;;;15.20;99.90;;;;;;5024413;28;20029;-78
2023/05/12 06:57:58;;;;;;;5.45;3.83;;;15.30;99.90;;;;;;5026400;28;20041;-78
2023/05/12 07:00:24;;;;;;;3.85;3.42;;;15.30;99.90;;;;;;5044569;28;20039;-76
2023/05/12 07:02:50;;;;;;;3.03;2.72;;;15.40;99.90;;;;;;5025643;28;20040;-76
2023/05/12 07:05:17;;;;;;;5.18;3.30;;;15.40;99.90;;;;;;5011246;28;20080;-76
2023/05/12 07:07:43;;;;;;;5.80;3.67;;;15.50;99.90;;;;;;5025596;28;20090;-76
2023/05/12 07:10:08;;;;;;;5.07;3.10;;;15.60;99.90;;;;;;5028192;28;20041;-77
2023/05/12 07:12:34;;;;;;;6.28;2.90;;;15.60;99.90;;;;;;5029320;28;20431;-77
2023/05/12 07:15:00;;;;;;;4.65;3.15;;;15.60;99.90;;;;;;5028850;28;20075;-77
2023/05/12 07:17:25;;;;;;;4.78;2.97;;;15.70;99.90;;;;;;5025989;28;20025;-77
2023/05/12 07:19:51;;;;;;;4.18;3.63;;;15.70;99.90;;;;;;5011373;28;20393;-77
2023/05/12 07:22:17;;;;;;;3.95;2.85;;;15.70;99.90;;;;;;5045553;28;20029;-77
2023/05/12 07:24:43;;;;;;;4.50;3.00;;;15.60;99.90;;;;;;5027980;28;20033;-77
2023/05/12 07:27:08;;;;;;;5.60;3.15;;;15.60;99.90;;;;;;5042503;28;20028;-77
2023/05/12 07:29:34;;;;;;;5.60;3.10;;;15.60;99.90;;;;;;5010741;28;20078;-77
2023/05/12 07:31:59;;;;;;;3.42;3.13;;;15.50;99.90;;;;;;5026229;28;20056;-77
2023/05/12 07:34:25;;;;;;;3.83;3.05;;;15.50;99.90;;;;;;5009783;28;20029;-77
2023/05/12 07:36:51;;;;;;;3.08;2.72;;;15.50;99.90;;;;;;5042189;28;20749;-78
2023/05/12 07:39:22;;;;;;;3.38;2.90;;;15.50;99.90;;;;;;5026629;28;20032;-77
2023/05/12 07:41:52;;;;;;;5.63;2.90;;;15.50;99.90;;;;;;5025156;28;20094;-76
2023/05/12 07:44:18;;;;;;;4.00;2.70;;;15.40;99.90;;;;;;5042168;28;20112;-76
2023/05/12 07:46:43;;;;;;;3.08;2.83;;;15.40;99.90;;;;;;5021670;28;20108;-76
2023/05/12 07:49:09;;;;;;;6.75;3.20;;;15.40;99.90;;;;;;5026340;28;20036;-77
2023/05/12 07:51:35;;;;;;;4.40;2.90;;;15.40;99.90;;;;;;5024537;28;20180;-76
2023/05/12 07:54:00;;;;;;;3.60;3.30;;;15.50;99.90;;;;;;5042293;28;20090;-76
2023/05/12 07:56:26;;;;;;;3.33;2.50;;;15.50;99.90;;;;;;5009588;28;20132;-76
2023/05/12 07:58:51;;;;;;;3.38;3.00;;;15.50;99.90;;;;;;5026744;28;20128;-76
2023/05/12 08:01:17;;;;;;;5.55;2.95;;;15.60;99.90;;;;;;5011837;28;20033;-76
2023/05/12 08:03:42;;;;;;;6.22;3.03;;;15.60;99.90;;;;;;5024522;28;20461;-76
2023/05/12 08:06:08;;;;;;;5.13;2.70;;;15.70;99.90;;;;;;5043875;28;20166;-78
2023/05/12 08:08:35;;;;;;;7.05;3.13;;;15.80;99.90;;;;;;5009971;28;20063;-78
2023/05/12 08:11:00;;;;;;;5.25;3.72;;;15.90;99.90;;;;;;5038194;28;20116;-77
2023/05/12 08:13:26;;;;;;;5.07;3.22;;;16.00;99.90;;;;;;5025996;28;20108;-77
2023/05/12 08:15:52;;;;;;;3.25;2.83;;;16.00;99.90;;;;;;5025271;28;20056;-78
2023/05/12 08:18:17;;;;;;;2.67;2.47;;;16.10;99.90;;;;;;5026516;28;20112;-78
2023/05/12 08:20:43;;;;;;;4.47;3.47;;;16.20;99.90;;;;;;5026756;28;20032;-78
2023/05/12 08:23:08;;;;;;;6.75;3.05;;;16.20;99.90;;;;;;5025644;28;20415;-76
2023/05/12 08:25:35;;;;;;;5.90;2.72;;;16.30;99.90;;;;;;5011162;28;20033;-77
2023/05/12 08:28:01;;;;;;;3.85;2.92;;;16.40;99.90;;;;;;5043477;28;20508;-76
2023/05/12 08:30:27;;;;;;;5.55;2.88;;;16.40;99.90;;;;;;5009030;28;20033;-76
2023/05/12 08:32:54;;;;;;;6.38;2.92;;;16.50;99.90;;;;;;5008031;28;20508;-76
2023/05/12 08:35:19;;;;;;;3.95;2.53;;;16.70;99.90;;;;;;5026082;28;20110;-77
2023/05/12 08:37:45;;;;;;;4.63;2.60;;;16.80;99.90;;;;;;5005706;28;20024;-76
2023/05/12 08:40:20;;;;;;;10.02;3.45;;;17.00;99.90;;;;;;5026670;28;20029;-77
2023/05/12 08:42:56;;;;;;;3.70;2.92;;;17.20;99.90;;;;;;5039929;28;20048;-77
2023/05/12 08:45:24;;;;;;;4.13;3.10;;;17.40;99.90;;;;;;5026805;28;20021;-76
2023/05/12 08:47:50;;;;;;;6.40;3.10;;;17.40;99.90;;;;;;4996445;28;20043;-77
2023/05/12 08:50:16;;;;;;;4.20;3.00;;;17.50;99.90;;;;;;5033310;28;20036;-76
2023/05/12 08:52:42;;;;;;;7.07;2.92;;;17.80;99.90;;;;;;5025620;28;20124;-77
2023/05/12 08:55:08;;;;;;;2.95;2.53;;;17.90;99.90;;;;;;5024912;28;20104;-76
2023/05/12 08:57:33;;;;;;;5.65;3.40;;;18.00;99.90;;;;;;5041139;28;20483;-76
2023/05/12 08:59:59;;;;;;;6.90;2.80;;;18.20;99.90;;;;;;5023430;28;20033;-76
2023/05/12 09:02:24;;;;;;;4.25;2.53;;;18.40;99.90;;;;;;5008666;28;20032;-76
2023/05/12 09:04:51;;;;;;;4.13;2.53;;;18.50;99.90;;;;;;5023719;28;20104;-76
2023/05/12 09:07:17;;;;;;;5.43;2.70;;;18.70;99.90;;;;;;5025071;28;20061;-77
2023/05/12 09:09:44;;;;;;;5.85;2.65;;;18.80;99.90;;;;;;5007360;28;20404;-77
2023/05/12 09:12:11;;;;;;;3.45;2.78;;;19.00;99.90;;;;;;5007999;28;20037;-77
2023/05/12 09:14:38;;;;;;;3.00;2.30;;;19.10;99.90;;;;;;5024541;28;20041;-77
2023/05/12 09:17:03;;;;;;;2.75;2.13;;;19.30;99.90;;;;;;5022899;28;20069;-76
2023/05/12 09:19:30;;;;;;;2.38;2.17;;;19.40;99.90;;;;;;5039585;28;20485;-77
2023/05/12 09:21:55;;;;;;;4.25;2.65;;;19.60;99.90;;;;;;5039742;28;20056;-77
2023/05/12 09:24:37;;;;;;;3.80;2.22;;;19.60;99.90;;;;;;5025687;28;20493;-76
2023/05/12 09:27:03;;;;;;;4.05;2.78;;;20.00;99.90;;;;;;5009587;28;20036;-77
2023/05/12 09:29:28;;;;;;;4.47;2.20;;;20.10;99.90;;;;;;5040136;28;20036;-78
2023/05/12 09:31:56;;;;;;;4.45;2.42;;;20.20;99.90;;;;;;5023673;28;20032;-77
2023/05/12 09:34:29;;;;;;;3.10;2.25;;;20.30;99.90;;;;;;5023473;28;20037;-77
2023/05/12 09:36:56;;;;;;;2.92;2.60;;;20.50;99.90;;;;;;5016869;28;20501;-77
2023/05/12 09:39:21;;;;;;;5.05;2.70;;;20.60;99.90;;;;;;5041433;28;20037;-77
2023/05/12 09:41:47;;;;;;;2.55;2.35;;;20.70;99.90;;;;;;5023306;28;20040;-77
2023/05/12 09:44:15;;;;;;;4.90;3.00;;;20.80;99.90;;;;;;5003437;28;20431;-77
2023/05/12 09:46:41;;;;;;;4.45;2.47;;;20.90;99.90;;;;;;5039693;28;20032;-77
2023/05/12 09:49:06;;;;;;;9.45;2.72;;;21.20;99.90;;;;;;5023776;28;20041;-77
2023/05/12 09:51:32;;;;;;;2.53;2.17;;;21.30;99.90;;;;;;5038574;28;20052;-76
2023/05/12 09:53:57;;;;;;;2.92;2.22;;;21.30;99.90;;;;;;5008383;28;20025;-77
2023/05/12 09:56:25;;;;;;;6.53;2.55;;;21.50;99.90;;;;;;5024175;28;20104;-77
2023/05/12 09:58:51;;;;;;;8.25;2.40;;;21.60;99.90;;;;;;5024647;28;20029;-77
2023/05/12 10:01:18;;;;;;;4.30;2.10;;;21.60;99.90;;;;;;5007105;28;20767;-77
2023/05/12 10:03:46;;;;;;;6.72;2.50;;;21.80;99.90;;;;;;5035821;28;20490;-77
2023/05/12 10:06:15;;;;;;;5.93;2.05;;;21.90;99.90;;;;;;5023905;28;20116;-77
2023/05/12 10:08:52;;;;;;;2.63;2.08;;;22.00;99.90;;;;;;5039873;28;20107;-78
2023/05/12 10:11:17;;;;;;;4.03;2.40;;;22.00;99.90;;;;;;5024718;28;20609;-77
2023/05/12 10:13:43;;;;;;;3.15;2.03;;;22.20;99.90;;;;;;5023867;28;20104;-77
2023/05/12 10:16:09;;;;;;;2.72;2.03;;;22.30;99.90;;;;;;5023520;28;20033;-77
2023/05/12 10:18:34;;;;;;;3.05;2.03;;;22.40;99.90;;;;;;5009539;28;20382;-77
2023/05/12 10:21:00;;;;;;;2.67;2.10;;;22.50;99.90;;;;;;5028061;28;20052;-77
2023/05/12 10:23:26;;;;;;;3.17;2.05;;;22.60;99.90;;;;;;5042324;28;20063;-77
2023/05/12 10:25:53;;;;;;;4.63;2.40;;;22.60;99.90;;;;;;5025665;28;20029;-80
2023/05/12 10:28:19;;;;;;;5.20;2.20;;;22.60;99.90;;;;;;5022435;28;20025;-80
2023/05/12 10:30:45;;;;;;;2.50;2.30;;;22.80;99.90;;;;;;5027174;28;20037;-79
2023/05/12 10:33:10;;;;;;;2.40;2.20;;;22.60;99.90;;;;;;5027267;28;20112;-79
2023/05/12 10:35:36;;;;;;;3.42;2.35;;;22.80;99.90;;;;;;5043841;28;20485;-80
2023/05/12 10:38:06;;;;;;;3.00;2.20;;;22.90;99.90;;;;;;5027620;28;20112;-79
2023/05/12 10:40:32;;;;;;;3.58;2.15;;;22.90;99.90;;;;;;5009512;28;20040;-79
2023/05/12 10:43:01;;;;;;;3.67;2.28;;;23.00;99.90;;;;;;5026843;28;20029;-79
2023/05/12 10:45:26;;;;;;;4.43;1.90;;;23.10;99.90;;;;;;5043092;28;20547;-79
2023/05/12 10:48:02;;;;;;;4.30;2.00;;;23.20;99.90;;;;;;5026201;28;20123;-79
2023/05/12 10:50:28;;;;;;;;;;;23.30;99.90;;;;;;5009882;28;20055;-80
2023/05/12 10:52:54;;;;;;;3.17;2.30;;;23.40;99.90;;;;;;5043753;28;19944;-80
2023/05/12 10:55:29;;;;;;;3.08;2.03;;;23.50;99.90;;;;;;5027314;28;20325;-80
2023/05/12 10:58:03;;;;;;;5.05;2.70;;;23.60;99.90;;;;;;5030181;28;20543;-79
2023/05/12 11:00:28;;;;;;;4.75;2.15;;;23.60;99.90;;;;;;5039522;28;20090;-79
2023/05/12 11:02:54;;;;;;;4.80;2.30;;;23.70;99.90;;;;;;5027197;28;20025;-78
2023/05/12 11:05:19;;;;;;;5.68;3.05;;;23.70;99.90;;;;;;5043466;28;20025;-78
2023/05/12 11:07:48;;;;;;;3.60;2.92;;;23.70;99.90;;;;;;5041599;28;20587;-78
2023/05/12 11:10:14;;;;;;;3.80;2.17;;;23.80;99.90;;;;;;5027105;28;20045;-78
2023/05/12 11:12:41;;;;;;;3.25;2.50;;;23.80;99.90;;;;;;5026169;28;20449;-78
2023/05/12 11:15:07;;;;;;;2.55;2.33;;;23.80;99.90;;;;;;5026898;28;20033;-78
2023/05/12 11:17:33;;;;;;;2.60;2.40;;;23.90;99.90;;;;;;5027243;28;20434;-78
2023/05/12 11:19:59;;;;;;;2.97;2.10;;;24.00;99.90;;;;;;5041478;28;20569;-79
2023/05/12 11:22:25;;;;;;;7.38;2.63;;;23.90;99.90;;;;;;5027717;28;20025;-78
2023/05/12 11:24:51;;;;;;;3.15;2.40;;;24.10;99.90;;;;;;5027260;28;20070;-79
2023/05/12 11:27:19;;;;;;;3.40;2.47;;;24.30;99.90;;;;;;5025405;28;20538;-78
2023/05/12 11:29:53;;;;;;;2.50;2.30;;;24.70;99.90;;;;;;5022236;28;20029;-79
2023/05/12 11:32:19;;;;;;;3.92;2.45;;;24.90;99.90;;;;;;5030254;28;20517;-79
2023/05/12 11:34:46;;;;;;;2.58;2.25;;;25.20;99.90;;;;;;5042471;28;20034;-79
2023/05/12 11:37:11;;;;;;;4.75;2.35;;;25.30;99.90;;;;;;5025544;28;20385;-79
2023/05/12 11:39:37;;;;;;;4.10;2.65;;;25.50;99.90;;;;;;5028490;28;20048;-79
2023/05/12 11:42:04;;;;;;;3.35;2.10;;;25.60;99.90;;;;;;5025552;28;21169;-79
2023/05/12 11:44:30;;;;;;;3.00;2.80;;;25.80;99.90;;;;;;5026126;28;20033;-79
2023/05/12 11:47:01;;;;;;;3.30;2.97;;;25.80;99.90;;;;;;5027119;28;20059;-79
2023/05/12 11:49:28;;;;;;;2.88;2.63;;;26.00;99.90;;;;;;5044347;28;20033;-78
2023/05/12 11:51:55;;;;;;;6.72;2.65;;;26.30;99.90;;;;;;5026458;28;20124;-79
2023/05/12 11:54:21;;;;;;;4.47;2.55;;;26.40;99.90;;;;;;5026023;28;20044;-79
2023/05/12 11:56:52;;;;;;;3.10;2.80;;;26.50;99.90;;;;;;5026948;28;20045;-79
2023/05/12 11:59:31;;;;;;;7.03;3.08;;;26.60;99.90;;;;;;5024492;28;20037;-79
2023/05/12 12:01:57;;;;;;;3.92;3.20;;;26.70;99.90;;;;;;5025264;28;20401;-79
2023/05/12 12:04:41;;;;;;;4.45;2.78;;;26.70;99.90;;;;;;5024295;28;20448;-78
2023/05/12 12:07:07;;;;;;;4.13;2.72;;;26.80;99.90;;;;;;5044325;28;20037;-79
2023/05/12 12:09:33;;;;;;;11.32;3.75;;;26.90;99.90;;;;;;5025694;28;20064;-78
2023/05/12 12:12:00;;;;;;;7.20;3.15;;;26.90;99.90;;;;;;5024344;28;20151;-78
2023/05/12 12:14:26;;;;;;;4.13;3.03;;;26.80;99.90;;;;;;5010039;28;20032;-79
2023/05/12 12:16:51;;;;;;;4.63;2.45;;;26.90;99.90;;;;;;5008888;28;20382;-79
2023/05/12 12:19:17;;;;;;;3.85;2.75;;;26.90;99.90;;;;;;5040815;28;20037;-79
2023/05/12 12:21:43;;;;;;;4.38;3.13;;;26.90;99.90;;;;;;5041003;28;20062;-79
2023/05/12 12:24:09;;;;;;;5.07;2.65;;;26.80;99.90;;;;;;5025911;28;20029;-78
2023/05/12 12:26:34;;;;;;;6.95;2.83;;;26.80;99.90;;;;;;5025114;28;20102;-79
2023/05/12 12:29:00;;;;;;;4.30;2.50;;;26.70;99.90;;;;;;5044902;28;20036;-79
2023/05/12 12:31:25;;;;;;;4.18;3.33;;;26.60;99.90;;;;;;5041564;28;20781;-79
2023/05/12 12:33:51;;;;;;;5.00;2.95;;;26.50;98.60;;;;;;5022398;28;20519;-79
2023/05/12 12:36:17;;;;;;;3.15;2.88;;;26.30;99.60;;;;;;5040765;28;20102;-79
2023/05/12 12:38:42;;;;;;;6.82;3.80;;;26.00;99.90;;;;;;5037261;28;20036;-79
2023/05/12 12:41:09;;;;;;;6.28;3.58;;;26.00;99.90;;;;;;5041721;28;20075;-78